Time;durP1;ratioP1;P1;durP2;ratioP2;P2;SDS_P1;SDS_P2;PMS_P1;PMS_P2;Temp;Humidity;BMP_temperature;BMP_pressure;BME280_temperature;BME280_humidity;BME280_pressure;Samples;Min_cycle;Max_cycle;Signal;HPM_P1;HPM_P2
2024/01/02 00:00:11;;;;;;;0.10;0.10;;;;;;;9.32;75.24;99955.06;5095174;28;20056;-80
2024/01/02 00:02:38;;;;;;;0.22;0.22;;;;;;;9.32;75.22;99933.91;5094809;28;20058;-81
2024/01/02 00:05:04;;;;;;;0.20;0.20;;;;;;;9.37;75.24;99928.47;5099768;28;20067;-80
2024/01/02 00:07:30;;;;;;;0.25;0.25;;;;;;;9.38;75.18;99914.34;5097228;28;20032;-80
2024/01/02 00:09:56;;;;;;;0.10;0.10;;;;;;;9.39;75.24;99909.03;5095772;28;20051;-79
2024/01/02 00:12:23;;;;;;;0.20;0.20;;;;;;;9.33;75.87;99901.28;5095905;28;20031;-80
2024/01/02 00:14:50;;;;;;;0.10;0.10;;;;;;;9.34;75.35;99884.47;5096347;28;20028;-79
2024/01/02 00:17:16;;;;;;;0.10;0.10;;;;;;;9.35;75.85;99880.94;5101598;28;20027;-80
2024/01/02 00:19:42;;;;;;;0.10;0.10;;;;;;;9.39;75.62;99849.97;5095272;28;20615;-79
2024/01/02 00:22:09;;;;;;;0.10;0.10;;;;;;;9.32;76.13;99838.75;5096633;28;20032;-79
2024/01/02 00:24:35;;;;;;;0.10;0.10;;;;;;;9.38;75.73;99830.63;5095796;28;20178;-79
2024/01/02 00:27:02;;;;;;;0.10;0.10;;;;;;;9.42;75.62;99817.28;5099055;28;20028;-79
2024/01/02 00:29:28;;;;;;;0.10;0.10;;;;;;;9.44;75.61;99812.81;5105351;28;20025;-80
2024/01/02 00:31:54;;;;;;;0.30;0.30;;;;;;;9.51;75.43;99799.34;5093967;28;20157;-81
2024/01/02 00:34:21;;;;;;;0.10;0.10;;;;;;;9.44;75.81;99795.16;5093852;28;20215;-81
2024/01/02 00:36:47;;;;;;;0.40;0.40;;;;;;;9.34;76.04;99788.47;5099954;28;20038;-79
2024/01/02 00:39:13;;;;;;;0.10;0.10;;;;;;;9.51;75.52;99782.63;5099309;28;20057;-80
2024/01/02 00:41:40;;;;;;;0.10;0.10;;;;;;;9.46;75.74;99780.13;5098390;28;20038;-81
2024/01/02 00:44:07;;;;;;;0.10;0.10;;;;;;;9.51;75.44;99766.78;5099853;28;20119;-81
2024/01/02 00:46:33;;;;;;;0.10;0.10;;;;;;;9.49;75.96;99758.00;5093747;28;20032;-80
2024/01/02 00:49:00;;;;;;;0.20;0.20;;;;;;;9.58;75.47;99739.19;5110121;28;20055;-80
2024/01/02 00:51:26;;;;;;;0.20;0.20;;;;;;;9.50;75.67;99735.94;5103790;28;20541;-82
2024/01/02 00:53:52;;;;;;;0.10;0.10;;;;;;;9.49;75.96;99711.28;5102451;28;20028;-81
2024/01/02 00:56:18;;;;;;;0.10;0.10;;;;;;;9.47;76.03;99694.63;5099506;28;20031;-81
2024/01/02 00:58:44;;;;;;;0.10;0.10;;;;;;;9.51;75.79;99695.38;5098400;28;20103;-80
2024/01/02 01:01:10;;;;;;;0.10;0.10;;;;;;;9.54;76.15;99679.38;5096310;28;20491;-81
2024/01/02 01:03:38;;;;;;;0.10;0.10;;;;;;;9.49;76.09;99670.75;5096146;28;20074;-81
2024/01/02 01:06:04;;;;;;;0.10;0.10;;;;;;;9.51;76.18;99661.00;5098340;28;20464;-81
2024/01/02 01:08:30;;;;;;;7.47;2.85;;;;;;;9.51;76.46;99658.34;5097951;28;20089;-81
2024/01/02 01:10:57;;;;;;;0.10;0.10;;;;;;;9.51;76.42;99647.78;5095028;28;20039;-81
2024/01/02 01:13:23;;;;;;;0.10;0.10;;;;;;;9.52;76.07;99641.56;5096841;28;20055;-81
2024/01/02 01:15:49;;;;;;;1.10;1.10;;;;;;;9.53;76.53;99622.13;5098646;28;20024;-81
2024/01/02 01:18:16;;;;;;;0.10;0.10;;;;;;;9.54;76.53;99621.22;5097250;28;20123;-79
2024/01/02 01:20:42;;;;;;;0.10;0.10;;;;;;;9.57;76.34;99605.25;5097902;28;20406;-79
2024/01/02 01:23:08;;;;;;;0.20;0.20;;;;;;;9.66;76.24;99596.13;5097598;28;20046;-80
2024/01/02 01:25:35;;;;;;;0.10;0.10;;;;;;;9.64;76.32;99580.28;5098972;28;20479;-79
2024/01/02 01:28:03;;;;;;;0.10;0.10;;;;;;;9.61;76.52;99564.56;5101741;28;20086;-79
2024/01/02 01:30:29;;;;;;;0.10;0.10;;;;;;;9.62;76.21;99566.28;5100680;28;20113;-80
2024/01/02 01:32:55;;;;;;;0.10;0.10;;;;;;;9.70;76.26;99556.25;5103082;28;20030;-80
2024/01/02 01:35:22;;;;;;;0.22;0.22;;;;;;;9.71;76.46;99555.34;5100058;28;20259;-77
2024/01/02 01:37:48;;;;;;;0.10;0.10;;;;;;;9.68;76.20;99544.91;5101780;28;20016;-76
2024/01/02 01:40:14;;;;;;;0.10;0.10;;;;;;;9.78;76.20;99537.50;5099641;28;20032;-78
2024/01/02 01:42:40;;;;;;;0.10;0.10;;;;;;;9.75;76.34;99520.88;5095300;28;20111;-78
2024/01/02 01:45:07;;;;;;;0.50;0.50;;;;;;;9.73;76.39;99509.47;5096035;28;20402;-78
2024/01/02 01:47:33;;;;;;;0.10;0.10;;;;;;;9.69;76.62;99517.53;5098545;28;20024;-79
2024/01/02 01:50:00;;;;;;;0.10;0.10;;;;;;;9.58;76.91;99511.75;5096727;28;20038;-79
2024/01/02 01:52:29;;;;;;;0.20;0.20;;;;;;;9.71;76.53;99477.81;5098791;28;20032;-80
2024/01/02 01:54:55;;;;;;;0.10;0.10;;;;;;;9.74;76.66;99459.16;5098512;28;20058;-79
2024/01/02 01:57:22;;;;;;;0.52;0.52;;;;;;;9.73;76.87;99452.13;5096993;28;20123;-79
2024/01/02 01:59:48;;;;;;;0.10;0.10;;;;;;;9.69;76.80;99451.41;5090323;28;20107;-79
2024/01/02 02:02:14;;;;;;;0.10;0.10;;;;;;;9.76;76.68;99435.28;5095832;28;20085;-79
2024/01/02 02:04:45;;;;;;;0.10;0.10;;;;;;;9.73;76.87;99423.03;5097005;28;20511;-78
2024/01/02 02:07:11;;;;;;;0.10;0.10;;;;;;;9.70;76.72;99410.78;5096780;28;20039;-79
2024/01/02 02:09:37;;;;;;;0.10;0.10;;;;;;;9.76;76.86;99406.19;5096095;28;20032;-79
2024/01/02 02:12:05;;;;;;;0.10;0.10;;;;;;;9.81;76.76;99397.16;5096558;28;20032;-79
2024/01/02 02:14:32;;;;;;;0.10;0.10;;;;;;;9.87;76.48;99390.78;5098025;28;20031;-78
2024/01/02 02:16:58;;;;;;;0.10;0.10;;;;;;;9.91;76.33;99397.66;5096739;28;20028;-79
2024/01/02 02:19:24;;;;;;;0.47;0.47;;;;;;;9.83;76.86;99399.72;5091763;28;20399;-79
2024/01/02 02:21:55;;;;;;;0.10;0.10;;;;;;;9.87;76.67;99385.47;5097206;28;20038;-78
2024/01/02 02:24:23;;;;;;;0.10;0.10;;;;;;;9.83;76.62;99376.81;5097424;28;20028;-79
2024/01/02 02:26:49;;;;;;;0.10;0.10;;;;;;;9.92;76.70;99372.91;5098575;28;20028;-78
2024/01/02 02:29:15;;;;;;;0.20;0.20;;;;;;;9.83;77.05;99357.41;5098020;28;20111;-77
2024/01/02 02:31:42;;;;;;;0.10;0.10;;;;;;;9.78;77.52;99336.47;5092622;28;20040;-78
2024/01/02 02:34:08;;;;;;;0.10;0.10;;;;;;;9.94;76.79;99328.72;5098568;28;20537;-79
2024/01/02 02:36:34;;;;;;;0.10;0.10;;;;;;;9.99;76.96;99321.47;5098930;28;20047;-79
2024/01/02 02:39:00;;;;;;;0.10;0.10;;;;;;;9.98;76.95;99308.28;5097217;28;20043;-79
2024/01/02 02:41:26;;;;;;;0.10;0.10;;;;;;;9.94;77.24;99296.97;5097986;28;20105;-79
2024/01/02 02:43:52;;;;;;;0.10;0.10;;;;;;;10.06;77.04;99295.59;5098559;28;20027;-79
2024/01/02 02:46:19;;;;;;;0.10;0.10;;;;;;;10.00;77.28;99286.13;5090230;28;20032;-79
2024/01/02 02:48:45;;;;;;;0.13;0.13;;;;;;;9.99;77.16;99279.16;5097003;28;20024;-79
2024/01/02 02:51:11;;;;;;;0.10;0.10;;;;;;;10.09;77.16;99270.78;5096311;28;20047;-78
2024/01/02 02:53:37;;;;;;;0.10;0.10;;;;;;;10.09;77.24;99263.69;5096788;28;20028;-79
2024/01/02 02:56:03;;;;;;;0.10;0.10;;;;;;;10.02;77.41;99247.25;5097952;28;20109;-78
2024/01/02 02:58:30;;;;;;;0.10;0.10;;;;;;;10.04;77.27;99240.13;5097533;28;20482;-79
2024/01/02 03:00:57;;;;;;;0.10;0.10;;;;;;;10.04;77.56;99245.41;5094069;28;20032;-79
2024/01/02 03:03:23;;;;;;;0.10;0.10;;;;;;;10.17;77.14;99231.63;5102525;28;20100;-78
2024/01/02 03:05:50;;;;;;;0.10;0.10;;;;;;;10.16;77.32;99221.97;5099133;28;20028;-79
2024/01/02 03:08:16;;;;;;;0.10;0.10;;;;;;;10.15;77.30;99231.69;5099367;28;20077;-79
2024/01/02 03:10:43;;;;;;;0.10;0.10;;;;;;;10.07;77.21;99223.25;5099463;28;20095;-79
2024/01/02 03:13:10;;;;;;;0.10;0.10;;;;;;;10.16;77.16;99208.75;5099590;28;20023;-79
2024/01/02 03:15:36;;;;;;;0.17;0.15;;;;;;;10.11;77.50;99187.75;5097261;28;20047;-79
2024/01/02 03:18:02;;;;;;;0.20;0.20;;;;;;;10.09;77.74;99183.47;5098738;28;20028;-80
2024/01/02 03:20:28;;;;;;;0.13;0.13;;;;;;;10.13;77.58;99182.41;5098874;28;20031;-80
2024/01/02 03:22:55;;;;;;;0.10;0.10;;;;;;;10.09;78.10;99194.06;5100449;28;20038;-79
2024/01/02 03:25:21;;;;;;;0.10;0.10;;;;;;;10.18;77.76;99194.50;5100217;28;20047;-79
2024/01/02 03:27:47;;;;;;;0.13;0.13;;;;;;;10.21;77.49;99190.84;5100474;28;20028;-79
2024/01/02 03:30:14;;;;;;;0.10;0.10;;;;;;;10.24;77.65;99179.28;5095202;28;20052;-79
2024/01/02 03:32:40;;;;;;;0.10;0.10;;;;;;;10.17;78.04;99168.97;5099317;28;20036;-79
2024/01/02 03:35:07;;;;;;;2.08;1.98;;;;;;;10.14;78.26;99161.19;5098570;28;20036;-79
2024/01/02 03:37:33;;;;;;;0.10;0.10;;;;;;;10.19;77.94;99153.00;5100210;28;20024;-79
2024/01/02 03:39:59;;;;;;;0.20;0.20;;;;;;;10.22;78.39;99163.47;5087857;28;20035;-79
2024/01/02 03:42:25;;;;;;;0.10;0.10;;;;;;;10.16;78.55;99154.00;5098494;28;20394;-79
2024/01/02 03:44:51;;;;;;;0.10;0.10;;;;;;;10.29;78.33;99154.31;5096848;28;20083;-80
2024/01/02 03:47:18;;;;;;;0.10;0.10;;;;;;;10.30;78.53;99139.28;5096050;28;20032;-80
2024/01/02 03:49:44;;;;;;;0.10;0.10;;;;;;;10.37;78.09;99151.34;5096065;28;20039;-79
2024/01/02 03:52:10;;;;;;;0.17;0.17;;;;;;;10.36;78.58;99142.53;5098722;28;20384;-80
2024/01/02 03:54:36;;;;;;;0.10;0.10;;;;;;;10.38;78.57;99147.78;5099043;28;20095;-78
2024/01/02 03:57:03;;;;;;;0.10;0.10;;;;;;;10.52;78.40;99155.91;5100131;28;20028;-78
2024/01/02 03:59:29;;;;;;;0.20;0.20;;;;;;;10.56;78.01;99138.09;5096131;28;20032;-78
2024/01/02 04:01:55;;;;;;;0.10;0.10;;;;;;;10.51;78.63;99117.13;5100133;28;20047;-79
2024/01/02 04:04:21;;;;;;;0.10;0.10;;;;;;;10.49;78.57;99111.06;5098364;28;20437;-79
2024/01/02 04:06:47;;;;;;;0.10;0.10;;;;;;;10.59;78.63;99108.84;5098786;28;20053;-79
2024/01/02 04:09:14;;;;;;;0.10;0.10;;;;;;;10.66;78.33;99122.63;5098102;28;20051;-79
2024/01/02 04:11:41;;;;;;;0.10;0.10;;;;;;;10.70;78.88;99129.50;5109137;28;20036;-79
2024/01/02 04:14:07;;;;;;;0.10;0.10;;;;;;;10.73;78.87;99116.09;5089038;28;20024;-78
2024/01/02 04:16:33;;;;;;;0.10;0.10;;;;;;;10.81;78.66;99110.44;5100113;28;20050;-78
2024/01/02 04:18:59;;;;;;;0.10;0.10;;;;;;;10.87;78.94;99096.03;5103424;28;20032;-79
2024/01/02 04:21:25;;;;;;;0.10;0.10;;;;;;;10.94;78.99;99090.34;5107311;28;20038;-79
2024/01/02 04:23:51;;;;;;;0.17;0.17;;;;;;;10.97;79.05;99103.44;5106813;28;20036;-79
2024/01/02 04:26:18;;;;;;;0.10;0.10;;;;;;;11.05;79.26;99104.84;5104499;28;20031;-79
2024/01/02 04:28:44;;;;;;;0.10;0.10;;;;;;;11.12;79.27;99108.91;5096999;28;20053;-79
2024/01/02 04:31:10;;;;;;;0.10;0.10;;;;;;;11.21;79.98;99100.50;5104118;28;20031;-78
2024/01/02 04:33:36;;;;;;;0.10;0.10;;;;;;;11.22;80.41;99096.91;5103511;28;20028;-80
2024/01/02 04:36:02;;;;;;;0.10;0.10;;;;;;;11.32;79.81;99099.97;5102808;28;20047;-80
2024/01/02 04:38:29;;;;;;;0.85;0.45;;;;;;;11.36;79.37;99092.72;5101043;28;20035;-81
2024/01/02 04:40:57;;;;;;;0.10;0.10;;;;;;;11.49;79.40;99084.03;5100092;28;20063;-80
2024/01/02 04:43:24;;;;;;;0.10;0.10;;;;;;;11.54;79.24;99101.50;5099734;28;20035;-80
2024/01/02 04:45:52;;;;;;;0.10;0.10;;;;;;;11.46;80.83;99104.53;5095997;28;20089;-79
2024/01/02 04:48:18;;;;;;;0.10;0.10;;;;;;;11.57;80.58;99096.88;5101919;28;20078;-79
2024/01/02 04:50:44;;;;;;;0.10;0.10;;;;;;;11.61;80.05;99087.84;5099850;28;20062;-80
2024/01/02 04:53:10;;;;;;;0.10;0.10;;;;;;;11.72;79.73;99111.13;5102115;28;20024;-80
2024/01/02 04:55:36;;;;;;;0.10;0.10;;;;;;;11.67;80.68;99096.41;5102141;28;20036;-80
2024/01/02 04:58:04;;;;;;;0.10;0.10;;;;;;;11.68;80.90;99092.84;5099637;28;20028;-77
2024/01/02 05:00:30;;;;;;;0.10;0.10;;;;;;;11.85;80.47;99100.75;5099358;28;20028;-79
2024/01/02 05:02:59;;;;;;;0.00;0.00;;;;;;;11.88;80.41;99089.13;5103385;28;20040;-79
2024/01/02 05:05:25;;;;;;;0.10;0.10;;;;;;;11.82;80.55;99095.59;5103876;28;20020;-78
2024/01/02 05:07:51;;;;;;;0.10;0.10;;;;;;;11.97;79.65;99099.25;5098944;28;20097;-80
2024/01/02 05:10:17;;;;;;;0.10;0.10;;;;;;;11.97;80.18;99105.44;5099825;28;20028;-77
2024/01/02 05:12:43;;;;;;;0.10;0.10;;;;;;;11.98;80.16;99101.81;5098898;28;20046;-77
2024/01/02 05:15:09;;;;;;;0.10;0.10;;;;;;;12.02;80.03;99086.59;5091806;28;20040;-78
2024/01/02 05:17:35;;;;;;;0.10;0.10;;;;;;;12.08;80.28;99106.66;5092826;28;20028;-79
2024/01/02 05:20:03;;;;;;;0.10;0.10;;;;;;;12.12;79.69;99102.88;5094466;28;20035;-78
2024/01/02 05:22:29;;;;;;;0.10;0.10;;;;;;;12.16;80.29;99109.72;5090840;28;20024;-78
2024/01/02 05:24:55;;;;;;;0.10;0.10;;;;;;;12.26;79.79;99116.28;5091268;28;20032;-79
2024/01/02 05:27:21;;;;;;;0.10;0.10;;;;;;;12.29;79.67;99115.25;5088749;28;20023;-79
2024/01/02 05:29:47;;;;;;;0.15;0.15;;;;;;;12.27;80.17;99118.00;5094290;28;20111;-78
2024/01/02 05:32:14;;;;;;;0.10;0.10;;;;;;;12.35;80.24;99120.22;5089757;28;20035;-79
2024/01/02 05:34:40;;;;;;;0.10;0.10;;;;;;;12.38;80.35;99119.19;5094726;28;20519;-79
2024/01/02 05:37:06;;;;;;;0.10;0.10;;;;;;;12.50;79.85;99113.19;5090293;28;20028;-76
2024/01/02 05:39:32;;;;;;;0.10;0.10;;;;;;;12.62;80.31;99123.16;5088525;28;20111;-78
2024/01/02 05:41:58;;;;;;;0.10;0.10;;;;;;;12.64;80.21;99139.00;5087858;28;20028;-79
2024/01/02 05:44:25;;;;;;;0.10;0.10;;;;;;;12.72;80.11;99133.25;5088962;28;20032;-79
2024/01/02 05:46:51;;;;;;;0.10;0.10;;;;;;;12.74;80.90;99126.06;5088787;28;20107;-79
2024/01/02 05:49:17;;;;;;;0.68;0.68;;;;;;;12.87;80.35;99131.50;5089153;28;20440;-79
2024/01/02 05:51:43;;;;;;;0.10;0.10;;;;;;;12.84;80.53;99137.88;5085092;28;20031;-80
2024/01/02 05:54:10;;;;;;;0.10;0.10;;;;;;;13.06;80.03;99142.81;5091398;28;20055;-79
2024/01/02 05:56:36;;;;;;;0.10;0.10;;;;;;;13.07;80.28;99149.84;5086341;28;20044;-78
2024/01/02 05:59:03;;;;;;;0.20;0.20;;;;;;;13.18;79.88;99141.22;5090402;28;20052;-79
2024/01/02 06:01:29;;;;;;;0.15;0.15;;;;;;;13.21;79.77;99142.88;5087599;28;20032;-79
2024/01/02 06:03:55;;;;;;;0.10;0.10;;;;;;;13.30;79.69;99150.31;5091573;28;20391;-79
2024/01/02 06:06:21;;;;;;;0.10;0.10;;;;;;;13.19;80.08;99153.59;5090563;28;20050;-80
2024/01/02 06:08:47;;;;;;;0.10;0.10;;;;;;;13.31;79.56;99156.47;5092229;28;20044;-80
2024/01/02 06:11:13;;;;;;;0.10;0.10;;;;;;;13.39;79.18;99164.91;5089491;28;20032;-80
2024/01/02 06:13:40;;;;;;;0.55;0.55;;;;;;;13.46;78.85;99166.28;5096196;28;20035;-80
2024/01/02 06:16:10;;;;;;;0.10;0.10;;;;;;;13.43;79.01;99182.41;5096351;28;20020;-80
2024/01/02 06:18:37;;;;;;;0.30;0.30;;;;;;;13.48;78.41;99180.31;5097158;28;20023;-78
2024/01/02 06:21:04;;;;;;;0.20;0.20;;;;;;;13.47;78.88;99172.44;5097877;28;20040;-80
2024/01/02 06:23:32;;;;;;;0.10;0.10;;;;;;;13.60;77.84;99184.06;5098222;28;20493;-79
2024/01/02 06:25:59;;;;;;;0.10;0.10;;;;;;;13.42;78.21;99192.19;5096890;28;20433;-78
2024/01/02 06:28:25;;;;;;;0.15;0.15;;;;;;;13.45;78.01;99177.84;5089347;28;20055;-78
2024/01/02 06:30:51;;;;;;;0.10;0.10;;;;;;;13.51;77.81;99196.13;5094119;28;20036;-79
2024/01/02 06:33:18;;;;;;;5.40;0.90;;;;;;;13.55;77.01;99202.97;5095895;28;20116;-78
2024/01/02 06:35:44;;;;;;;0.10;0.10;;;;;;;13.49;76.84;99195.34;5095858;28;20035;-79
2024/01/02 06:38:10;;;;;;;0.20;0.20;;;;;;;13.48;77.13;99206.91;5096592;28;20024;-78
2024/01/02 06:40:37;;;;;;;0.10;0.10;;;;;;;13.57;77.23;99201.09;5096566;28;20111;-78
2024/01/02 06:43:04;;;;;;;0.10;0.10;;;;;;;13.63;76.27;99213.16;5094956;28;20040;-80
2024/01/02 06:45:31;;;;;;;0.20;0.20;;;;;;;13.47;76.57;99212.34;5096986;28;20063;-79
2024/01/02 06:47:58;;;;;;;0.10;0.10;;;;;;;13.59;76.63;99214.28;5098445;28;20032;-79
2024/01/02 06:50:24;;;;;;;0.10;0.10;;;;;;;13.66;76.30;99215.66;5097991;28;20509;-80
2024/01/02 06:52:50;;;;;;;0.08;0.08;;;;;;;13.61;76.12;99207.09;5096801;28;20116;-80
2024/01/02 06:55:17;;;;;;;3.65;2.38;;;;;;;13.61;76.08;99215.06;5101474;28;20032;-80
2024/01/02 06:57:43;;;;;;;0.10;0.10;;;;;;;13.48;76.32;99233.53;5102371;28;20165;-81
2024/01/02 07:00:10;;;;;;;1.30;1.30;;;;;;;13.66;75.72;99234.28;5095690;28;20054;-81
2024/01/02 07:02:37;;;;;;;5.72;2.75;;;;;;;13.58;75.52;99237.41;5095556;28;20028;-80
2024/01/02 07:05:03;;;;;;;0.65;0.65;;;;;;;13.47;75.71;99226.53;5106468;28;20032;-80
2024/01/02 07:07:29;;;;;;;1.20;1.15;;;;;;;13.53;75.37;99239.47;5105842;28;20032;-80
2024/01/02 07:09:55;;;;;;;0.10;0.10;;;;;;;13.56;75.53;99241.94;5103164;28;20024;-79
2024/01/02 07:12:22;;;;;;;0.10;0.10;;;;;;;13.42;75.82;99247.19;5097611;28;20095;-81
2024/01/02 07:14:48;;;;;;;0.10;0.10;;;;;;;13.51;75.73;99243.16;5104439;28;20042;-80
2024/01/02 07:17:18;;;;;;;0.10;0.10;;;;;;;13.59;75.25;99246.22;5093966;28;20028;-81
2024/01/02 07:19:44;;;;;;;0.30;0.30;;;;;;;13.53;75.06;99246.56;5103796;28;20024;-80
2024/01/02 07:22:10;;;;;;;0.20;0.20;;;;;;;13.52;75.45;99259.03;5104080;28;20058;-81
2024/01/02 07:24:36;;;;;;;1.40;1.35;;;;;;;13.45;75.43;99270.13;5101793;28;20028;-78
2024/01/02 07:27:03;;;;;;;0.20;0.20;;;;;;;13.52;74.81;99275.00;5105097;28;20034;-78
2024/01/02 07:29:29;;;;;;;0.10;0.10;;;;;;;13.58;74.62;99282.63;5093822;28;20036;-78
2024/01/02 07:31:55;;;;;;;0.10;0.10;;;;;;;13.48;74.31;99280.56;5105975;28;20107;-78
2024/01/02 07:34:22;;;;;;;0.10;0.10;;;;;;;13.46;75.17;99288.66;5103217;28;20032;-80
2024/01/02 07:36:49;;;;;;;0.10;0.10;;;;;;;13.48;74.78;99296.53;5102768;28;20036;-80
2024/01/02 07:39:15;;;;;;;0.10;0.10;;;;;;;13.54;74.61;99299.69;5108215;28;20034;-81
2024/01/02 07:41:41;;;;;;;3.83;2.03;;;;;;;13.35;75.18;99302.53;5103750;28;20035;-81
2024/01/02 07:44:07;;;;;;;0.10;0.10;;;;;;;13.36;75.12;99287.44;5099543;28;20043;-81
2024/01/02 07:46:34;;;;;;;0.10;0.10;;;;;;;13.45;74.89;99297.56;5107740;28;20040;-81
2024/01/02 07:49:00;;;;;;;0.20;0.20;;;;;;;13.47;74.69;99297.47;5106270;28;20052;-81
2024/01/02 07:51:27;;;;;;;0.10;0.10;;;;;;;13.51;74.54;99297.22;5106722;28;20032;-81
2024/01/02 07:53:53;;;;;;;13.18;1.75;;;;;;;13.47;74.87;99297.47;5099224;28;20035;-81
2024/01/02 07:56:20;;;;;;;0.10;0.10;;;;;;;13.35;74.82;99299.00;5107608;28;20024;-80
2024/01/02 07:58:47;;;;;;;0.20;0.20;;;;;;;13.38;74.79;99285.56;5106915;28;20087;-80
2024/01/02 08:01:16;;;;;;;0.10;0.10;;;;;;;13.39;74.73;99290.78;5096466;28;20029;-79
2024/01/02 08:03:42;;;;;;;0.10;0.10;;;;;;;13.40;74.65;99284.53;5102501;28;20039;-79
2024/01/02 08:06:08;;;;;;;0.20;0.20;;;;;;;13.33;75.10;99282.28;5097890;28;20032;-80
2024/01/02 08:08:35;;;;;;;0.15;0.15;;;;;;;13.35;74.79;99269.75;5102763;28;20054;-78
2024/01/02 08:11:01;;;;;;;0.10;0.10;;;;;;;13.36;74.54;99276.78;5098288;28;20035;-78
2024/01/02 08:13:27;;;;;;;0.10;0.10;;;;;;;13.43;74.27;99272.84;5107503;28;20039;-79
2024/01/02 08:15:53;;;;;;;0.10;0.10;;;;;;;13.49;74.20;99272.50;5104314;28;20051;-79
2024/01/02 08:18:19;;;;;;;0.10;0.10;;;;;;;13.48;74.11;99270.78;5108558;28;20453;-79
2024/01/02 08:20:46;;;;;;;2.00;1.45;;;;;;;13.47;74.15;99271.75;5103160;28;20028;-81
2024/01/02 08:23:12;;;;;;;1.65;1.55;;;;;;;13.45;74.18;99265.66;5101971;28;20490;-80
2024/01/02 08:25:39;;;;;;;0.10;0.10;;;;;;;13.45;73.78;99265.66;5100966;28;20035;-81
2024/01/02 08:28:07;;;;;;;1.00;1.00;;;;;;;13.50;73.68;99262.72;5104745;28;20034;-80
2024/01/02 08:30:33;;;;;;;0.10;0.10;;;;;;;13.45;73.78;99254.16;5098165;28;20038;-79
2024/01/02 08:32:59;;;;;;;0.50;0.50;;;;;;;13.48;73.56;99244.16;5094370;28;20028;-81
2024/01/02 08:35:26;;;;;;;4.10;0.80;;;;;;;13.57;73.42;99251.63;5105172;28;20032;-81
2024/01/02 08:37:52;;;;;;;0.10;0.10;;;;;;;13.52;73.17;99248.38;5105873;28;20031;-80
2024/01/02 08:40:18;;;;;;;1.00;0.73;;;;;;;13.53;73.05;99249.25;5101165;28;20024;-80
2024/01/02 08:42:44;;;;;;;1.25;1.25;;;;;;;13.41;72.74;99254.31;5107265;28;20119;-79
2024/01/02 08:45:11;;;;;;;0.17;0.17;;;;;;;13.52;72.75;99245.72;5100859;28;20059;-80
2024/01/02 08:47:38;;;;;;;0.20;0.20;;;;;;;13.50;72.67;99252.94;5106009;28;20044;-80
2024/01/02 08:50:06;;;;;;;0.10;0.10;;;;;;;13.54;72.90;99254.47;5097691;28;20020;-80
2024/01/02 08:52:35;;;;;;;2.40;1.65;;;;;;;13.55;72.51;99258.84;5101364;28;20088;-80
2024/01/02 08:55:02;;;;;;;0.17;0.17;;;;;;;13.56;72.70;99259.72;5097249;28;20028;-80
2024/01/02 08:57:28;;;;;;;0.13;0.13;;;;;;;13.54;72.76;99251.81;5100260;28;20528;-80
2024/01/02 08:59:55;;;;;;;3.83;0.90;;;;;;;13.39;73.27;99255.34;5097099;28;20028;-81
2024/01/02 09:02:21;;;;;;;0.10;0.10;;;;;;;13.50;73.18;99252.09;5092523;28;20032;-81
2024/01/02 09:04:48;;;;;;;0.10;0.10;;;;;;;13.41;73.35;99259.66;5089220;28;20441;-79
2024/01/02 09:07:14;;;;;;;3.10;1.27;;;;;;;13.44;73.79;99247.97;5088583;28;20510;-80
2024/01/02 09:09:40;;;;;;;0.77;0.73;;;;;;;13.30;74.29;99245.22;5091189;28;20043;-80
2024/01/02 09:12:08;;;;;;;0.10;0.10;;;;;;;13.49;73.90;99245.03;5093196;28;20028;-79
2024/01/02 09:14:35;;;;;;;0.10;0.10;;;;;;;13.45;74.67;99244.38;5097067;28;20024;-79
2024/01/02 09:17:01;;;;;;;0.10;0.10;;;;;;;13.50;74.91;99244.94;5093818;28;20035;-81
2024/01/02 09:19:28;;;;;;;0.10;0.10;;;;;;;13.48;74.96;99241.50;5091888;28;20078;-80
2024/01/02 09:21:54;;;;;;;0.20;0.20;;;;;;;13.52;74.80;99242.19;5085118;28;20028;-82
2024/01/02 09:24:21;;;;;;;0.10;0.10;;;;;;;13.51;75.22;99233.38;5098225;28;20039;-81
2024/01/02 09:26:51;;;;;;;1.45;1.33;;;;;;;13.59;75.29;99240.91;5097063;28;20028;-81
2024/01/02 09:29:17;;;;;;;0.32;0.32;;;;;;;13.62;75.39;99247.84;5096536;28;20052;-81
2024/01/02 09:31:44;;;;;;;0.73;0.73;;;;;;;13.76;75.04;99247.91;5097082;28;20052;-82
2024/01/02 09:34:11;;;;;;;0.75;0.75;;;;;;;13.73;75.01;99242.75;5103182;28;20028;-81
2024/01/02 09:36:38;;;;;;;0.10;0.10;;;;;;;13.87;74.82;99250.78;5112225;28;20024;-81
2024/01/02 09:39:04;;;;;;;0.10;0.10;;;;;;;13.74;75.14;99253.31;5107652;28;20054;-80
2024/01/02 09:42:10;;;;;;;0.63;0.63;;;;;;;13.93;74.73;99254.03;5096606;28;20055;-80
2024/01/02 09:50:32;;;;;;;0.10;0.10;;;;;;;14.11;74.30;99262.75;5123377;27;20400;-79
2024/01/02 09:53:25;;;;;;;0.10;0.10;;;;;;;14.12;73.98;99243.13;5109465;28;20036;-82
2024/01/02 09:56:02;;;;;;;0.63;0.63;;;;;;;14.11;74.02;99236.94;5103977;28;20028;-80
2024/01/02 10:01:40;;;;;;;0.22;0.22;;;;;;;14.26;73.75;99240.50;5088081;28;20134;-81
2024/01/02 10:04:35;;;;;;;0.10;0.10;;;;;;;14.22;73.79;99236.31;5083795;28;20025;-80
2024/01/02 10:15:22;;;;;;;0.10;0.10;;;;;;;14.16;73.71;99224.22;5111302;27;20401;-82
2024/01/02 10:23:27;;;;;;;0.20;0.20;;;;;;;14.15;74.00;99227.81;5106571;27;1200081;-80
2024/01/02 10:25:58;;;;;;;0.30;0.30;;;;;;;14.17;73.77;99215.28;5125119;28;20032;-82
2024/01/02 10:28:27;;;;;;;0.20;0.20;;;;;;;14.19;73.70;99205.41;5125576;28;20112;-81
2024/01/02 10:36:16;;;;;;;0.10;0.10;;;;;;;14.19;73.62;99197.41;5124723;27;20414;-82
2024/01/02 10:39:09;;;;;;;0.10;0.10;;;;;;;14.28;73.69;99189.78;5104404;28;20038;-80
2024/01/02 10:52:35;;;;;;;0.10;0.10;;;;;;;14.28;73.74;99157.81;5121451;27;20375;-81
2024/01/02 10:55:14;;;;;;;0.10;0.10;;;;;;;14.11;74.15;99173.03;5118484;28;20047;-81
2024/01/02 11:00:22;;;;;;;0.10;0.10;;;;;;;14.16;74.39;99141.66;5129323;27;20040;-80
2024/01/02 11:05:51;;;;;;;0.10;0.10;;;;;;;14.21;74.48;99142.22;5095687;27;20392;-80
2024/01/02 11:11:03;;;;;;;0.20;0.20;;;;;;;14.09;75.30;99137.63;5125326;27;20392;-81
2024/01/02 11:13:30;;;;;;;0.10;0.10;;;;;;;14.16;74.89;99117.66;5101291;28;20066;-81
2024/01/02 11:16:03;;;;;;;0.10;0.10;;;;;;;14.19;74.99;99119.28;5099021;28;20032;-81
2024/01/02 11:18:32;;;;;;;0.10;0.10;;;;;;;14.09;75.40;99124.31;5093652;28;20028;-81
2024/01/02 11:23:40;;;;;;;0.10;0.10;;;;;;;14.14;75.57;99114.22;5118417;27;20384;-82
2024/01/02 11:26:19;;;;;;;0.20;0.20;;;;;;;14.04;75.88;99113.09;5117494;28;20034;-81
2024/01/02 11:28:47;;;;;;;0.25;0.25;;;;;;;14.11;75.57;99093.13;5117297;28;20436;-83
2024/01/02 11:31:15;;;;;;;0.10;0.10;;;;;;;14.03;75.71;99096.28;5101707;28;20077;-81
2024/01/02 11:39:14;;;;;;;0.10;0.10;;;;;;;13.99;76.56;99089.41;5116954;27;20376;-80
2024/01/02 11:44:57;;;;;;;0.10;0.10;;;;;;;13.86;77.06;99075.19;5100129;27;20134;-79
2024/01/02 11:47:34;;;;;;;0.10;0.10;;;;;;;13.90;76.73;99063.38;5096942;28;20039;-79
2024/01/02 11:50:03;;;;;;;0.13;0.13;;;;;;;13.86;76.84;99061.88;5080378;28;20036;-77
2024/01/02 11:52:33;;;;;;;0.10;0.10;;;;;;;13.87;76.92;99045.78;5079972;28;20028;-78
2024/01/02 11:57:54;;;;;;;0.20;0.20;;;;;;;13.98;76.57;99037.16;5112258;27;1460687;-79
2024/01/02 12:00:48;;;;;;;0.10;0.10;;;;;;;13.96;76.55;99031.06;5121957;27;20031;-78
2024/01/02 12:03:54;;;;;;;0.10;0.10;;;;;;;13.91;76.86;99023.34;5117966;28;20224;-80
2024/01/02 12:09:09;;;;;;;0.10;0.10;;;;;;;13.86;76.95;99014.78;5093734;27;1233887;-78
2024/01/02 12:11:46;;;;;;;0.10;0.10;;;;;;;13.86;76.76;98993.50;5112937;27;20035;-78
2024/01/02 12:17:05;;;;;;;1.55;1.25;;;;;;;13.73;77.25;98988.09;5109710;27;1214381;-80
2024/01/02 12:19:34;;;;;;;0.10;0.10;;;;;;;13.78;77.08;98978.97;5120519;28;20039;-80
2024/01/02 12:22:01;;;;;;;0.10;0.10;;;;;;;13.68;77.15;98963.59;5108670;28;20024;-79
2024/01/02 12:24:30;;;;;;;0.10;0.10;;;;;;;13.75;77.33;98956.06;5112676;28;20035;-80
2024/01/02 12:26:58;;;;;;;0.55;0.55;;;;;;;13.72;77.23;98954.47;5122009;28;20023;-79
2024/01/02 12:29:41;;;;;;;0.10;0.10;;;;;;;13.81;77.20;98939.69;5119690;28;20024;-80
2024/01/02 12:32:21;;;;;;;0.10;0.10;;;;;;;13.78;77.08;98931.91;5104675;28;20016;-79
2024/01/02 12:34:57;;;;;;;0.10;0.10;;;;;;;13.77;76.98;98924.91;5105807;28;20099;-80
2024/01/02 12:40:10;;;;;;;0.10;0.10;;;;;;;13.64;77.61;98902.66;5112661;27;20399;-78
2024/01/02 12:42:42;;;;;;;0.10;0.10;;;;;;;13.68;77.43;98890.88;5115708;28;20032;-79
2024/01/02 12:45:14;;;;;;;0.15;0.15;;;;;;;13.67;77.62;98886.50;5109165;28;20084;-79